sensor_id;sensor_type;location;lat;lon;timestamp;temperature;humidity
19538;DHT22;9914;51.008;4.300;2023-05-14T00:01:13;13.60;99.90
19538;DHT22;9914;51.008;4.300;2023-05-14T00:03:39;13.70;99.90
19538;DHT22;9914;51.008;4.300;2023-05-14T00:06:06;13.70;99.90
19538;DHT22;9914;51.008;4.300;2023-05-14T00:08:32;13.80;99.90
19538;DHT22;9914;51.008;4.300;2023-05-14T00:10:58;13.70;99.90
19538;DHT22;9914;51.008;4.300;2023-05-14T00:13:24;13.80;99.90
19538;DHT22;9914;51.008;4.300;2023-05-14T00:15:50;13.80;99.90
19538;DHT22;9914;51.008;4.300;2023-05-14T00:18:16;13.80;99.90
19538;DHT22;9914;51.008;4.300;2023-05-14T00:20:42;13.80;99.90
19538;DHT22;9914;51.008;4.300;2023-05-14T00:23:08;13.80;99.90
19538;DHT22;9914;51.008;4.300;2023-05-14T00:25:33;13.70;99.90
19538;DHT22;9914;51.008;4.300;2023-05-14T00:27:59;13.70;99.90
19538;DHT22;9914;51.008;4.300;2023-05-14T00:30:25;13.70;99.90
19538;DHT22;9914;51.008;4.300;2023-05-14T00:32:50;13.60;99.90
19538;DHT22;9914;51.008;4.300;2023-05-14T00:35:16;13.60;99.90
19538;DHT22;9914;51.008;4.300;2023-05-14T00:37:42;13.50;99.90
19538;DHT22;9914;51.008;4.300;2023-05-14T00:40:08;13.40;99.90
19538;DHT22;9914;51.008;4.300;2023-05-14T00:42:36;13.20;99.90
19538;DHT22;9914;51.008;4.300;2023-05-14T00:45:01;13.30;99.90
19538;DHT22;9914;51.008;4.300;2023-05-14T00:47:27;13.40;99.90
19538;DHT22;9914;51.008;4.300;2023-05-14T00:49:53;13.10;99.90
19538;DHT22;9914;51.008;4.300;2023-05-14T00:52:19;13.20;99.90
19538;DHT22;9914;51.008;4.300;2023-05-14T00:54:46;13.30;99.90
19538;DHT22;9914;51.008;4.300;2023-05-14T00:57:12;13.40;99.90
19538;DHT22;9914;51.008;4.300;2023-05-14T00:59:38;13.50;99.90
19538;DHT22;9914;51.008;4.300;2023-05-14T01:02:06;13.50;99.90
19538;DHT22;9914;51.008;4.300;2023-05-14T01:04:32;13.70;99.90
19538;DHT22;9914;51.008;4.300;2023-05-14T01:12:47;13.80;99.90
19538;DHT22;9914;51.008;4.300;2023-05-14T01:15:30;13.90;99.90
19538;DHT22;9914;51.008;4.300;2023-05-14T01:18:08;13.80;99.90
19538;DHT22;9914;51.008;4.300;2023-05-14T01:20:35;13.80;99.90
19538;DHT22;9914;51.008;4.300;2023-05-14T01:23:01;13.80;99.90
19538;DHT22;9914;51.008;4.300;2023-05-14T01:25:28;13.80;99.90
19538;DHT22;9914;51.008;4.300;2023-05-14T01:28:08;13.80;99.90
19538;DHT22;9914;51.008;4.300;2023-05-14T01:30:42;13.60;99.90
19538;DHT22;9914;51.008;4.300;2023-05-14T01:33:14;13.70;99.90
19538;DHT22;9914;51.008;4.300;2023-05-14T01:35:41;13.80;99.90
19538;DHT22;9914;51.008;4.300;2023-05-14T01:38:10;13.80;99.90
19538;DHT22;9914;51.008;4.300;2023-05-14T01:40:37;13.80;99.90
19538;DHT22;9914;51.008;4.300;2023-05-14T01:43:04;13.70;99.90
19538;DHT22;9914;51.008;4.300;2023-05-14T01:45:30;13.60;99.90
19538;DHT22;9914;51.008;4.300;2023-05-14T01:47:56;13.20;99.90
19538;DHT22;9914;51.008;4.300;2023-05-14T01:50:22;13.40;99.90
19538;DHT22;9914;51.008;4.300;2023-05-14T01:52:48;13.60;99.90
19538;DHT22;9914;51.008;4.300;2023-05-14T01:55:13;13.60;99.90
19538;DHT22;9914;51.008;4.300;2023-05-14T01:57:40;13.70;99.90
19538;DHT22;9914;51.008;4.300;2023-05-14T02:00:06;13.80;99.90
19538;DHT22;9914;51.008;4.300;2023-05-14T02:02:32;13.80;99.90
19538;DHT22;9914;51.008;4.300;2023-05-14T02:04:57;13.70;99.90
19538;DHT22;9914;51.008;4.300;2023-05-14T02:07:23;13.70;99.90
19538;DHT22;9914;51.008;4.300;2023-05-14T02:09:48;13.60;99.90
19538;DHT22;9914;51.008;4.300;2023-05-14T02:12:14;13.60;99.90
19538;DHT22;9914;51.008;4.300;2023-05-14T02:14:40;13.70;99.90
19538;DHT22;9914;51.008;4.300;2023-05-14T02:17:05;13.60;99.90
19538;DHT22;9914;51.008;4.300;2023-05-14T02:19:31;13.50;99.90
19538;DHT22;9914;51.008;4.300;2023-05-14T02:21:58;13.60;99.90
19538;DHT22;9914;51.008;4.300;2023-05-14T02:24:24;13.60;99.90
19538;DHT22;9914;51.008;4.300;2023-05-14T02:26:50;13.60;99.90
19538;DHT22;9914;51.008;4.300;2023-05-14T02:29:15;13.70;99.90
19538;DHT22;9914;51.008;4.300;2023-05-14T02:31:41;13.80;99.90
19538;DHT22;9914;51.008;4.300;2023-05-14T02:34:08;13.40;99.90
19538;DHT22;9914;51.008;4.300;2023-05-14T02:36:34;13.50;99.90
19538;DHT22;9914;51.008;4.300;2023-05-14T02:39:00;13.70;99.90
19538;DHT22;9914;51.008;4.300;2023-05-14T02:41:26;13.80;99.90
19538;DHT22;9914;51.008;4.300;2023-05-14T02:43:52;13.80;99.90
19538;DHT22;9914;51.008;4.300;2023-05-14T02:46:18;13.80;99.90
19538;DHT22;9914;51.008;4.300;2023-05-14T02:48:44;13.60;99.90
19538;DHT22;9914;51.008;4.300;2023-05-14T02:51:09;13.50;99.90
19538;DHT22;9914;51.008;4.300;2023-05-14T02:53:35;13.70;99.90
19538;DHT22;9914;51.008;4.300;2023-05-14T02:56:01;13.70;99.90
19538;DHT22;9914;51.008;4.300;2023-05-14T02:58:26;13.80;99.90
19538;DHT22;9914;51.008;4.300;2023-05-14T03:00:52;13.80;99.90
19538;DHT22;9914;51.008;4.300;2023-05-14T03:03:18;13.80;99.90
19538;DHT22;9914;51.008;4.300;2023-05-14T03:05:44;13.80;99.90
19538;DHT22;9914;51.008;4.300;2023-05-14T03:08:10;13.80;99.90
19538;DHT22;9914;51.008;4.300;2023-05-14T03:10:36;13.80;99.90
19538;DHT22;9914;51.008;4.300;2023-05-14T03:13:02;13.80;99.90
19538;DHT22;9914;51.008;4.300;2023-05-14T03:15:28;13.60;99.90
19538;DHT22;9914;51.008;4.300;2023-05-14T03:17:53;13.80;99.90
19538;DHT22;9914;51.008;4.300;2023-05-14T03:20:19;13.80;99.90
19538;DHT22;9914;51.008;4.300;2023-05-14T03:22:45;13.50;99.90
19538;DHT22;9914;51.008;4.300;2023-05-14T03:25:11;13.60;99.90
19538;DHT22;9914;51.008;4.300;2023-05-14T03:27:36;13.70;99.90
19538;DHT22;9914;51.008;4.300;2023-05-14T03:30:02;13.80;99.90
19538;DHT22;9914;51.008;4.300;2023-05-14T03:32:29;13.80;99.90
19538;DHT22;9914;51.008;4.300;2023-05-14T03:34:54;13.50;99.90
19538;DHT22;9914;51.008;4.300;2023-05-14T03:37:20;13.60;99.90
19538;DHT22;9914;51.008;4.300;2023-05-14T03:39:46;13.80;99.90
19538;DHT22;9914;51.008;4.300;2023-05-14T03:42:11;13.80;99.90
19538;DHT22;9914;51.008;4.300;2023-05-14T03:44:37;13.80;99.90
19538;DHT22;9914;51.008;4.300;2023-05-14T03:47:03;13.80;99.90
19538;DHT22;9914;51.008;4.300;2023-05-14T03:49:28;13.80;99.90
19538;DHT22;9914;51.008;4.300;2023-05-14T03:51:54;13.80;99.90
19538;DHT22;9914;51.008;4.300;2023-05-14T03:54:20;13.80;99.90
19538;DHT22;9914;51.008;4.300;2023-05-14T03:56:46;13.80;99.90
19538;DHT22;9914;51.008;4.300;2023-05-14T03:59:11;13.80;99.90
19538;DHT22;9914;51.008;4.300;2023-05-14T04:01:37;13.80;99.90
19538;DHT22;9914;51.008;4.300;2023-05-14T04:04:03;13.90;99.90
19538;DHT22;9914;51.008;4.300;2023-05-14T04:06:28;13.90;99.90
19538;DHT22;9914;51.008;4.300;2023-05-14T04:08:54;13.90;99.90
19538;DHT22;9914;51.008;4.300;2023-05-14T04:11:20;13.90;99.90
19538;DHT22;9914;51.008;4.300;2023-05-14T04:13:45;14.00;99.90
19538;DHT22;9914;51.008;4.300;2023-05-14T04:16:11;13.90;99.90
19538;DHT22;9914;51.008;4.300;2023-05-14T04:18:37;13.70;99.90
19538;DHT22;9914;51.008;4.300;2023-05-14T04:21:03;13.80;99.90
19538;DHT22;9914;51.008;4.300;2023-05-14T04:23:29;13.90;99.90
19538;DHT22;9914;51.008;4.300;2023-05-14T04:25:56;13.90;99.90
19538;DHT22;9914;51.008;4.300;2023-05-14T04:28:22;13.90;99.90
19538;DHT22;9914;51.008;4.300;2023-05-14T04:30:48;14.00;99.90
19538;DHT22;9914;51.008;4.300;2023-05-14T04:33:13;14.00;99.90
19538;DHT22;9914;51.008;4.300;2023-05-14T04:35:40;13.50;99.90
19538;DHT22;9914;51.008;4.300;2023-05-14T04:38:05;12.80;99.90
19538;DHT22;9914;51.008;4.300;2023-05-14T04:40:31;12.70;99.90
19538;DHT22;9914;51.008;4.300;2023-05-14T04:42:57;13.20;99.90
19538;DHT22;9914;51.008;4.300;2023-05-14T04:45:23;13.20;99.90
19538;DHT22;9914;51.008;4.300;2023-05-14T04:47:48;13.10;99.90
19538;DHT22;9914;51.008;4.300;2023-05-14T04:50:14;13.00;99.90
19538;DHT22;9914;51.008;4.300;2023-05-14T04:52:40;13.40;99.90
19538;DHT22;9914;51.008;4.300;2023-05-14T04:55:06;13.60;99.90
19538;DHT22;9914;51.008;4.300;2023-05-14T04:57:32;13.80;99.90
19538;DHT22;9914;51.008;4.300;2023-05-14T04:59:58;13.80;99.90
19538;DHT22;9914;51.008;4.300;2023-05-14T05:02:24;14.00;99.90
19538;DHT22;9914;51.008;4.300;2023-05-14T05:04:49;14.10;99.90
19538;DHT22;9914;51.008;4.300;2023-05-14T05:07:15;13.40;99.90
19538;DHT22;9914;51.008;4.300;2023-05-14T05:09:42;13.50;99.90
19538;DHT22;9914;51.008;4.300;2023-05-14T05:12:08;13.10;99.90
19538;DHT22;9914;51.008;4.300;2023-05-14T05:14:33;13.60;99.90
19538;DHT22;9914;51.008;4.300;2023-05-14T05:16:59;13.90;99.90
19538;DHT22;9914;51.008;4.300;2023-05-14T05:19:25;14.00;99.90
19538;DHT22;9914;51.008;4.300;2023-05-14T05:21:51;13.70;99.90
19538;DHT22;9914;51.008;4.300;2023-05-14T05:24:16;13.30;99.90
19538;DHT22;9914;51.008;4.300;2023-05-14T05:26:42;13.60;99.90
19538;DHT22;9914;51.008;4.300;2023-05-14T05:29:08;13.60;99.90
19538;DHT22;9914;51.008;4.300;2023-05-14T05:31:33;13.10;99.90
19538;DHT22;9914;51.008;4.300;2023-05-14T05:33:59;13.60;99.90
19538;DHT22;9914;51.008;4.300;2023-05-14T05:36:25;13.90;99.90
19538;DHT22;9914;51.008;4.300;2023-05-14T05:38:51;13.80;99.90
19538;DHT22;9914;51.008;4.300;2023-05-14T05:41:17;14.00;99.90
19538;DHT22;9914;51.008;4.300;2023-05-14T05:43:42;14.10;99.90
19538;DHT22;9914;51.008;4.300;2023-05-14T05:46:08;14.10;99.90
19538;DHT22;9914;51.008;4.300;2023-05-14T05:48:34;13.90;99.90
19538;DHT22;9914;51.008;4.300;2023-05-14T05:50:59;14.00;99.90
19538;DHT22;9914;51.008;4.300;2023-05-14T05:53:25;14.00;99.90
19538;DHT22;9914;51.008;4.300;2023-05-14T05:55:51;14.00;99.90
19538;DHT22;9914;51.008;4.300;2023-05-14T05:58:17;13.90;99.90
19538;DHT22;9914;51.008;4.300;2023-05-14T06:00:43;13.90;99.90
19538;DHT22;9914;51.008;4.300;2023-05-14T06:03:10;13.70;99.90
19538;DHT22;9914;51.008;4.300;2023-05-14T06:05:35;13.30;99.90
19538;DHT22;9914;51.008;4.300;2023-05-14T06:08:01;13.60;99.90
19538;DHT22;9914;51.008;4.300;2023-05-14T06:10:27;14.00;99.90
19538;DHT22;9914;51.008;4.300;2023-05-14T06:12:53;14.20;99.90
19538;DHT22;9914;51.008;4.300;2023-05-14T06:15:19;13.70;99.90
19538;DHT22;9914;51.008;4.300;2023-05-14T06:17:44;13.40;99.90
19538;DHT22;9914;51.008;4.300;2023-05-14T06:20:10;13.30;99.90
19538;DHT22;9914;51.008;4.300;2023-05-14T06:22:36;13.30;99.90
19538;DHT22;9914;51.008;4.300;2023-05-14T06:25:02;13.80;99.90
19538;DHT22;9914;51.008;4.300;2023-05-14T06:27:28;14.20;99.90
19538;DHT22;9914;51.008;4.300;2023-05-14T06:29:54;14.40;99.90
19538;DHT22;9914;51.008;4.300;2023-05-14T06:32:20;14.50;99.90
19538;DHT22;9914;51.008;4.300;2023-05-14T06:34:46;14.20;99.90
19538;DHT22;9914;51.008;4.300;2023-05-14T06:37:12;14.30;99.90
19538;DHT22;9914;51.008;4.300;2023-05-14T06:39:38;14.40;99.90
19538;DHT22;9914;51.008;4.300;2023-05-14T06:42:04;14.20;99.90
19538;DHT22;9914;51.008;4.300;2023-05-14T06:44:31;14.30;99.90
19538;DHT22;9914;51.008;4.300;2023-05-14T06:46:56;14.50;99.90
19538;DHT22;9914;51.008;4.300;2023-05-14T06:49:22;14.30;99.90
19538;DHT22;9914;51.008;4.300;2023-05-14T06:51:48;13.70;99.90
19538;DHT22;9914;51.008;4.300;2023-05-14T06:54:13;13.40;99.90
19538;DHT22;9914;51.008;4.300;2023-05-14T06:56:39;13.40;99.90
19538;DHT22;9914;51.008;4.300;2023-05-14T06:59:05;13.00;99.90
19538;DHT22;9914;51.008;4.300;2023-05-14T07:01:30;13.30;99.90
19538;DHT22;9914;51.008;4.300;2023-05-14T07:03:56;13.80;99.90
19538;DHT22;9914;51.008;4.300;2023-05-14T07:06:22;13.60;99.90
19538;DHT22;9914;51.008;4.300;2023-05-14T07:08:48;13.40;99.90
19538;DHT22;9914;51.008;4.300;2023-05-14T07:11:14;13.60;99.90
19538;DHT22;9914;51.008;4.300;2023-05-14T07:13:40;13.70;99.90
19538;DHT22;9914;51.008;4.300;2023-05-14T07:16:06;14.10;99.90
19538;DHT22;9914;51.008;4.300;2023-05-14T07:18:35;13.90;99.90
19538;DHT22;9914;51.008;4.300;2023-05-14T07:21:01;14.00;99.90
19538;DHT22;9914;51.008;4.300;2023-05-14T07:23:29;14.70;99.90
19538;DHT22;9914;51.008;4.300;2023-05-14T07:25:54;15.00;99.90
19538;DHT22;9914;51.008;4.300;2023-05-14T07:28:20;15.30;99.90
19538;DHT22;9914;51.008;4.300;2023-05-14T07:30:46;15.30;99.90
19538;DHT22;9914;51.008;4.300;2023-05-14T07:33:11;15.40;99.90
19538;DHT22;9914;51.008;4.300;2023-05-14T07:35:37;15.30;99.90
19538;DHT22;9914;51.008;4.300;2023-05-14T07:38:03;15.40;99.90
19538;DHT22;9914;51.008;4.300;2023-05-14T07:40:30;15.20;99.90
19538;DHT22;9914;51.008;4.300;2023-05-14T07:42:56;15.40;99.90
19538;DHT22;9914;51.008;4.300;2023-05-14T07:45:21;15.50;99.90
19538;DHT22;9914;51.008;4.300;2023-05-14T07:47:47;15.10;99.90
19538;DHT22;9914;51.008;4.300;2023-05-14T07:50:16;15.10;99.90
19538;DHT22;9914;51.008;4.300;2023-05-14T07:52:43;15.00;99.90
19538;DHT22;9914;51.008;4.300;2023-05-14T07:55:09;14.90;99.90
19538;DHT22;9914;51.008;4.300;2023-05-14T07:57:35;15.20;99.90
19538;DHT22;9914;51.008;4.300;2023-05-14T08:00:02;15.70;99.90
19538;DHT22;9914;51.008;4.300;2023-05-14T08:02:28;15.80;99.90
19538;DHT22;9914;51.008;4.300;2023-05-14T08:04:54;16.10;99.90
19538;DHT22;9914;51.008;4.300;2023-05-14T08:07:20;16.30;99.90
19538;DHT22;9914;51.008;4.300;2023-05-14T08:09:46;15.40;99.90
19538;DHT22;9914;51.008;4.300;2023-05-14T08:12:11;15.00;99.90
19538;DHT22;9914;51.008;4.300;2023-05-14T08:14:37;15.10;99.90
19538;DHT22;9914;51.008;4.300;2023-05-14T08:17:03;15.70;99.90
19538;DHT22;9914;51.008;4.300;2023-05-14T08:19:28;15.50;99.90
19538;DHT22;9914;51.008;4.300;2023-05-14T08:21:54;16.00;99.90
19538;DHT22;9914;51.008;4.300;2023-05-14T08:24:20;15.50;99.90
19538;DHT22;9914;51.008;4.300;2023-05-14T08:26:46;15.30;99.90
19538;DHT22;9914;51.008;4.300;2023-05-14T08:29:11;15.50;99.90
19538;DHT22;9914;51.008;4.300;2023-05-14T08:31:37;15.70;99.90
19538;DHT22;9914;51.008;4.300;2023-05-14T08:34:02;15.80;99.90
19538;DHT22;9914;51.008;4.300;2023-05-14T08:36:28;16.20;99.90
19538;DHT22;9914;51.008;4.300;2023-05-14T08:38:54;16.00;99.90
19538;DHT22;9914;51.008;4.300;2023-05-14T08:41:19;15.70;99.90
19538;DHT22;9914;51.008;4.300;2023-05-14T08:44:11;15.70;99.90
19538;DHT22;9914;51.008;4.300;2023-05-14T08:46:38;15.30;99.90
19538;DHT22;9914;51.008;4.300;2023-05-14T08:51:47;16.20;99.90
19538;DHT22;9914;51.008;4.300;2023-05-14T08:54:16;16.30;99.90
19538;DHT22;9914;51.008;4.300;2023-05-14T08:56:45;16.20;99.90
19538;DHT22;9914;51.008;4.300;2023-05-14T08:59:11;15.90;99.90
19538;DHT22;9914;51.008;4.300;2023-05-14T09:01:37;16.00;99.90
19538;DHT22;9914;51.008;4.300;2023-05-14T09:04:07;16.20;99.90
19538;DHT22;9914;51.008;4.300;2023-05-14T09:06:37;16.40;99.90
19538;DHT22;9914;51.008;4.300;2023-05-14T09:09:03;16.70;99.90
19538;DHT22;9914;51.008;4.300;2023-05-14T09:11:29;16.70;99.90
19538;DHT22;9914;51.008;4.300;2023-05-14T09:13:55;17.10;99.90
19538;DHT22;9914;51.008;4.300;2023-05-14T09:16:21;17.20;99.90
19538;DHT22;9914;51.008;4.300;2023-05-14T09:18:48;17.40;99.90
19538;DHT22;9914;51.008;4.300;2023-05-14T09:21:14;17.00;99.90
19538;DHT22;9914;51.008;4.300;2023-05-14T09:23:44;16.30;99.90
19538;DHT22;9914;51.008;4.300;2023-05-14T09:26:10;16.70;99.90
19538;DHT22;9914;51.008;4.300;2023-05-14T09:28:40;16.50;99.90
19538;DHT22;9914;51.008;4.300;2023-05-14T09:31:07;16.80;99.90
19538;DHT22;9914;51.008;4.300;2023-05-14T09:33:33;17.10;99.90
19538;DHT22;9914;51.008;4.300;2023-05-14T09:36:00;17.50;99.90
19538;DHT22;9914;51.008;4.300;2023-05-14T09:38:32;17.30;99.90
19538;DHT22;9914;51.008;4.300;2023-05-14T09:40:59;16.90;99.90
19538;DHT22;9914;51.008;4.300;2023-05-14T09:43:32;16.10;99.90
19538;DHT22;9914;51.008;4.300;2023-05-14T09:45:57;15.70;99.90
19538;DHT22;9914;51.008;4.300;2023-05-14T09:48:24;16.20;99.90
19538;DHT22;9914;51.008;4.300;2023-05-14T09:50:50;17.10;99.90
19538;DHT22;9914;51.008;4.300;2023-05-14T09:53:16;17.40;99.90
19538;DHT22;9914;51.008;4.300;2023-05-14T09:55:43;17.50;99.90
19538;DHT22;9914;51.008;4.300;2023-05-14T09:58:09;18.30;99.90
19538;DHT22;9914;51.008;4.300;2023-05-14T10:00:34;18.70;99.90
19538;DHT22;9914;51.008;4.300;2023-05-14T10:03:07;19.20;99.90
19538;DHT22;9914;51.008;4.300;2023-05-14T10:05:36;18.90;99.90
19538;DHT22;9914;51.008;4.300;2023-05-14T10:08:09;19.10;99.90
19538;DHT22;9914;51.008;4.300;2023-05-14T10:10:37;18.80;99.90
19538;DHT22;9914;51.008;4.300;2023-05-14T10:13:05;18.20;99.90
19538;DHT22;9914;51.008;4.300;2023-05-14T10:15:51;18.30;99.90
19538;DHT22;9914;51.008;4.300;2023-05-14T10:18:22;18.80;99.90
19538;DHT22;9914;51.008;4.300;2023-05-14T10:21:04;18.70;99.90
19538;DHT22;9914;51.008;4.300;2023-05-14T10:23:30;19.10;99.90
19538;DHT22;9914;51.008;4.300;2023-05-14T10:25:57;19.50;99.90
19538;DHT22;9914;51.008;4.300;2023-05-14T10:28:23;19.10;99.90
19538;DHT22;9914;51.008;4.300;2023-05-14T10:30:49;18.70;99.90
19538;DHT22;9914;51.008;4.300;2023-05-14T10:33:16;18.60;99.90
19538;DHT22;9914;51.008;4.300;2023-05-14T10:36:03;19.00;99.90
19538;DHT22;9914;51.008;4.300;2023-05-14T10:38:33;18.60;99.90
19538;DHT22;9914;51.008;4.300;2023-05-14T10:41:06;18.90;99.90
19538;DHT22;9914;51.008;4.300;2023-05-14T10:43:39;19.10;99.90
19538;DHT22;9914;51.008;4.300;2023-05-14T10:46:06;19.00;99.90
19538;DHT22;9914;51.008;4.300;2023-05-14T10:48:33;19.00;99.90
19538;DHT22;9914;51.008;4.300;2023-05-14T10:51:00;18.80;99.90
19538;DHT22;9914;51.008;4.300;2023-05-14T10:53:33;19.00;99.90
19538;DHT22;9914;51.008;4.300;2023-05-14T10:58:31;19.00;99.90
19538;DHT22;9914;51.008;4.300;2023-05-14T11:00:59;19.30;99.90
19538;DHT22;9914;51.008;4.300;2023-05-14T11:03:29;19.40;99.90
19538;DHT22;9914;51.008;4.300;2023-05-14T11:06:02;19.50;99.90
19538;DHT22;9914;51.008;4.300;2023-05-14T11:08:29;19.60;99.90
19538;DHT22;9914;51.008;4.300;2023-05-14T11:10:56;19.30;99.90
19538;DHT22;9914;51.008;4.300;2023-05-14T11:13:21;19.10;99.90
19538;DHT22;9914;51.008;4.300;2023-05-14T11:15:47;19.10;99.90
19538;DHT22;9914;51.008;4.300;2023-05-14T11:18:25;19.70;99.90
19538;DHT22;9914;51.008;4.300;2023-05-14T11:20:51;20.30;99.90
19538;DHT22;9914;51.008;4.300;2023-05-14T11:23:17;19.60;99.90
19538;DHT22;9914;51.008;4.300;2023-05-14T11:25:42;19.60;99.90
19538;DHT22;9914;51.008;4.300;2023-05-14T11:28:08;19.10;99.90
19538;DHT22;9914;51.008;4.300;2023-05-14T11:30:34;19.40;99.90
19538;DHT22;9914;51.008;4.300;2023-05-14T11:33:00;19.20;99.90
19538;DHT22;9914;51.008;4.300;2023-05-14T11:35:26;20.00;99.90
19538;DHT22;9914;51.008;4.300;2023-05-14T11:37:52;20.40;99.90
19538;DHT22;9914;51.008;4.300;2023-05-14T11:40:17;20.30;99.90
19538;DHT22;9914;51.008;4.300;2023-05-14T11:42:43;20.40;99.90
19538;DHT22;9914;51.008;4.300;2023-05-14T11:45:10;19.80;99.90
19538;DHT22;9914;51.008;4.300;2023-05-14T11:47:37;19.90;99.90
19538;DHT22;9914;51.008;4.300;2023-05-14T11:50:03;19.50;99.90
19538;DHT22;9914;51.008;4.300;2023-05-14T11:52:28;19.10;99.90
19538;DHT22;9914;51.008;4.300;2023-05-14T11:54:54;19.00;99.90
19538;DHT22;9914;51.008;4.300;2023-05-14T11:57:21;19.20;99.90
19538;DHT22;9914;51.008;4.300;2023-05-14T11:59:47;19.10;99.90
19538;DHT22;9914;51.008;4.300;2023-05-14T12:02:16;19.50;99.90
19538;DHT22;9914;51.008;4.300;2023-05-14T12:04:42;19.80;99.90
19538;DHT22;9914;51.008;4.300;2023-05-14T12:07:12;20.10;99.90
19538;DHT22;9914;51.008;4.300;2023-05-14T12:09:44;20.70;99.90
19538;DHT22;9914;51.008;4.300;2023-05-14T12:12:20;20.90;99.90
19538;DHT22;9914;51.008;4.300;2023-05-14T12:14:47;20.80;99.90
19538;DHT22;9914;51.008;4.300;2023-05-14T12:17:18;20.30;99.90
19538;DHT22;9914;51.008;4.300;2023-05-14T12:19:47;20.70;99.90
19538;DHT22;9914;51.008;4.300;2023-05-14T12:22:17;21.30;99.90
19538;DHT22;9914;51.008;4.300;2023-05-14T12:24:51;21.70;99.90
19538;DHT22;9914;51.008;4.300;2023-05-14T12:27:21;21.20;99.90
19538;DHT22;9914;51.008;4.300;2023-05-14T12:29:47;20.10;99.90
19538;DHT22;9914;51.008;4.300;2023-05-14T12:32:13;19.90;99.90
19538;DHT22;9914;51.008;4.300;2023-05-14T12:34:39;19.80;99.90
19538;DHT22;9914;51.008;4.300;2023-05-14T12:37:05;19.80;99.90
19538;DHT22;9914;51.008;4.300;2023-05-14T12:39:34;19.90;99.90
19538;DHT22;9914;51.008;4.300;2023-05-14T12:42:00;20.20;99.90
19538;DHT22;9914;51.008;4.300;2023-05-14T12:44:26;20.50;99.90
19538;DHT22;9914;51.008;4.300;2023-05-14T12:46:51;20.50;99.90
19538;DHT22;9914;51.008;4.300;2023-05-14T12:49:17;20.90;99.90
19538;DHT22;9914;51.008;4.300;2023-05-14T12:51:44;20.70;99.90
19538;DHT22;9914;51.008;4.300;2023-05-14T12:54:11;20.50;99.90
19538;DHT22;9914;51.008;4.300;2023-05-14T12:56:37;20.90;99.90
19538;DHT22;9914;51.008;4.300;2023-05-14T12:59:03;21.60;99.90
19538;DHT22;9914;51.008;4.300;2023-05-14T13:01:29;21.50;99.90
19538;DHT22;9914;51.008;4.300;2023-05-14T13:03:54;20.80;99.90
19538;DHT22;9914;51.008;4.300;2023-05-14T13:06:21;20.60;99.90
19538;DHT22;9914;51.008;4.300;2023-05-14T13:08:46;21.20;99.90
19538;DHT22;9914;51.008;4.300;2023-05-14T13:11:12;21.80;99.90
19538;DHT22;9914;51.008;4.300;2023-05-14T13:13:38;21.90;99.90
19538;DHT22;9914;51.008;4.300;2023-05-14T13:16:03;21.20;99.90
19538;DHT22;9914;51.008;4.300;2023-05-14T13:18:29;21.40;99.90
19538;DHT22;9914;51.008;4.300;2023-05-14T13:20:55;21.80;99.90
19538;DHT22;9914;51.008;4.300;2023-05-14T13:23:20;22.20;99.90
19538;DHT22;9914;51.008;4.300;2023-05-14T13:25:46;22.60;99.90
19538;DHT22;9914;51.008;4.300;2023-05-14T13:28:11;22.80;99.90
19538;DHT22;9914;51.008;4.300;2023-05-14T13:30:37;22.90;99.90
19538;DHT22;9914;51.008;4.300;2023-05-14T13:33:04;22.70;99.90
19538;DHT22;9914;51.008;4.300;2023-05-14T13:35:30;23.20;99.90
19538;DHT22;9914;51.008;4.300;2023-05-14T13:37:56;23.40;99.90
19538;DHT22;9914;51.008;4.300;2023-05-14T13:40:21;23.70;99.90
19538;DHT22;9914;51.008;4.300;2023-05-14T13:42:47;23.90;99.90
19538;DHT22;9914;51.008;4.300;2023-05-14T13:45:12;23.60;99.90
19538;DHT22;9914;51.008;4.300;2023-05-14T13:47:38;23.60;99.90
19538;DHT22;9914;51.008;4.300;2023-05-14T13:50:04;23.70;99.90
19538;DHT22;9914;51.008;4.300;2023-05-14T13:52:30;23.40;99.90
19538;DHT22;9914;51.008;4.300;2023-05-14T13:54:56;23.50;99.90
19538;DHT22;9914;51.008;4.300;2023-05-14T13:57:22;23.00;99.90
19538;DHT22;9914;51.008;4.300;2023-05-14T13:59:48;22.90;99.90
19538;DHT22;9914;51.008;4.300;2023-05-14T14:02:14;22.80;99.90
19538;DHT22;9914;51.008;4.300;2023-05-14T14:04:40;23.20;99.90
19538;DHT22;9914;51.008;4.300;2023-05-14T14:07:05;23.50;99.90
19538;DHT22;9914;51.008;4.300;2023-05-14T14:09:31;23.10;99.90
19538;DHT22;9914;51.008;4.300;2023-05-14T14:12:02;23.20;99.90
19538;DHT22;9914;51.008;4.300;2023-05-14T14:14:28;23.20;99.90
19538;DHT22;9914;51.008;4.300;2023-05-14T14:16:54;23.00;99.90
19538;DHT22;9914;51.008;4.300;2023-05-14T14:19:20;22.20;99.90
19538;DHT22;9914;51.008;4.300;2023-05-14T14:21:45;22.50;99.90
19538;DHT22;9914;51.008;4.300;2023-05-14T14:24:11;22.90;99.90
19538;DHT22;9914;51.008;4.300;2023-05-14T14:26:36;23.30;99.90
19538;DHT22;9914;51.008;4.300;2023-05-14T14:29:02;23.70;99.90
19538;DHT22;9914;51.008;4.300;2023-05-14T14:31:28;23.80;99.90
19538;DHT22;9914;51.008;4.300;2023-05-14T14:33:53;22.90;99.90
19538;DHT22;9914;51.008;4.300;2023-05-14T14:36:19;23.00;99.90
19538;DHT22;9914;51.008;4.300;2023-05-14T14:38:45;22.80;99.90
19538;DHT22;9914;51.008;4.300;2023-05-14T14:41:10;22.30;99.90
19538;DHT22;9914;51.008;4.300;2023-05-14T14:43:37;22.20;99.90
19538;DHT22;9914;51.008;4.300;2023-05-14T14:46:04;23.10;99.90
19538;DHT22;9914;51.008;4.300;2023-05-14T14:48:32;23.50;99.90
19538;DHT22;9914;51.008;4.300;2023-05-14T14:51:06;22.30;99.90
19538;DHT22;9914;51.008;4.300;2023-05-14T14:53:32;22.10;99.90
19538;DHT22;9914;51.008;4.300;2023-05-14T14:55:58;22.50;99.90
19538;DHT22;9914;51.008;4.300;2023-05-14T14:58:27;22.20;99.90
19538;DHT22;9914;51.008;4.300;2023-05-14T15:00:55;22.20;99.90
19538;DHT22;9914;51.008;4.300;2023-05-14T15:03:21;21.60;99.90
19538;DHT22;9914;51.008;4.300;2023-05-14T15:05:47;21.70;99.90
19538;DHT22;9914;51.008;4.300;2023-05-14T15:08:13;21.80;99.90
19538;DHT22;9914;51.008;4.300;2023-05-14T15:10:39;21.50;99.90
19538;DHT22;9914;51.008;4.300;2023-05-14T15:13:07;21.70;99.90
19538;DHT22;9914;51.008;4.300;2023-05-14T15:15:33;21.70;99.90
19538;DHT22;9914;51.008;4.300;2023-05-14T15:17:59;21.00;99.90
19538;DHT22;9914;51.008;4.300;2023-05-14T15:20:25;21.00;99.90
19538;DHT22;9914;51.008;4.300;2023-05-14T15:22:51;21.10;99.90
19538;DHT22;9914;51.008;4.300;2023-05-14T15:25:19;20.60;99.90
19538;DHT22;9914;51.008;4.300;2023-05-14T15:27:45;20.50;99.90
19538;DHT22;9914;51.008;4.300;2023-05-14T15:30:11;21.30;99.90
19538;DHT22;9914;51.008;4.300;2023-05-14T15:32:37;21.50;99.90
19538;DHT22;9914;51.008;4.300;2023-05-14T15:35:03;21.80;99.90
19538;DHT22;9914;51.008;4.300;2023-05-14T15:37:41;21.50;99.90
19538;DHT22;9914;51.008;4.300;2023-05-14T15:40:08;21.20;99.90
19538;DHT22;9914;51.008;4.300;2023-05-14T15:42:38;20.60;99.90
19538;DHT22;9914;51.008;4.300;2023-05-14T15:45:06;19.80;99.90
19538;DHT22;9914;51.008;4.300;2023-05-14T15:47:32;20.00;99.90
19538;DHT22;9914;51.008;4.300;2023-05-14T15:49:58;20.50;99.90
19538;DHT22;9914;51.008;4.300;2023-05-14T15:52:24;20.80;99.90